sensor_id;sensor_type;location;lat;lon;timestamp;temperature;humidity
45283;DHT22;31023;44.994;1.796;2024-01-15T00:00:18;5.60;97.40
45283;DHT22;31023;44.994;1.796;2024-01-15T00:02:44;5.60;97.40
45283;DHT22;31023;44.994;1.796;2024-01-15T00:05:10;5.70;97.40
45283;DHT22;31023;44.994;1.796;2024-01-15T00:07:35;5.70;97.40
45283;DHT22;31023;44.994;1.796;2024-01-15T00:10:02;5.70;97.30
45283;DHT22;31023;44.994;1.796;2024-01-15T00:12:27;5.80;97.60
45283;DHT22;31023;44.994;1.796;2024-01-15T00:14:53;5.80;97.30
45283;DHT22;31023;44.994;1.796;2024-01-15T00:17:19;5.80;97.40
45283;DHT22;31023;44.994;1.796;2024-01-15T00:19:45;5.70;97.60
45283;DHT22;31023;44.994;1.796;2024-01-15T00:22:10;5.60;98.00
45283;DHT22;31023;44.994;1.796;2024-01-15T00:24:36;5.60;98.10
45283;DHT22;31023;44.994;1.796;2024-01-15T00:27:02;5.70;98.20
45283;DHT22;31023;44.994;1.796;2024-01-15T00:29:27;5.70;98.10
45283;DHT22;31023;44.994;1.796;2024-01-15T00:31:53;5.70;98.00
45283;DHT22;31023;44.994;1.796;2024-01-15T00:34:19;5.80;97.90
45283;DHT22;31023;44.994;1.796;2024-01-15T00:36:44;5.80;97.80
45283;DHT22;31023;44.994;1.796;2024-01-15T00:39:10;5.90;97.80
45283;DHT22;31023;44.994;1.796;2024-01-15T00:41:36;5.90;97.60
45283;DHT22;31023;44.994;1.796;2024-01-15T00:44:02;5.90;97.50
45283;DHT22;31023;44.994;1.796;2024-01-15T00:46:28;5.90;97.40
45283;DHT22;31023;44.994;1.796;2024-01-15T00:48:54;5.90;97.40
45283;DHT22;31023;44.994;1.796;2024-01-15T00:51:20;6.00;97.40
45283;DHT22;31023;44.994;1.796;2024-01-15T00:53:45;5.90;97.40
45283;DHT22;31023;44.994;1.796;2024-01-15T00:56:11;5.90;97.40
45283;DHT22;31023;44.994;1.796;2024-01-15T00:58:36;6.00;97.40
45283;DHT22;31023;44.994;1.796;2024-01-15T01:01:02;6.00;97.40
45283;DHT22;31023;44.994;1.796;2024-01-15T01:03:28;5.90;97.50
45283;DHT22;31023;44.994;1.796;2024-01-15T01:05:54;5.90;97.60
45283;DHT22;31023;44.994;1.796;2024-01-15T01:08:19;5.80;97.70
45283;DHT22;31023;44.994;1.796;2024-01-15T01:10:45;5.80;97.80
45283;DHT22;31023;44.994;1.796;2024-01-15T01:13:11;5.80;97.90
45283;DHT22;31023;44.994;1.796;2024-01-15T01:15:36;5.80;98.00
45283;DHT22;31023;44.994;1.796;2024-01-15T01:18:02;5.80;97.80
45283;DHT22;31023;44.994;1.796;2024-01-15T01:20:28;5.80;97.80
45283;DHT22;31023;44.994;1.796;2024-01-15T01:22:54;5.80;97.80
45283;DHT22;31023;44.994;1.796;2024-01-15T01:25:19;5.90;97.70
45283;DHT22;31023;44.994;1.796;2024-01-15T01:27:45;5.80;98.10
45283;DHT22;31023;44.994;1.796;2024-01-15T01:30:11;5.70;98.30
45283;DHT22;31023;44.994;1.796;2024-01-15T01:32:37;5.70;98.20
45283;DHT22;31023;44.994;1.796;2024-01-15T01:35:03;5.70;98.10
45283;DHT22;31023;44.994;1.796;2024-01-15T01:37:29;5.60;98.30
45283;DHT22;31023;44.994;1.796;2024-01-15T01:39:54;5.50;98.80
45283;DHT22;31023;44.994;1.796;2024-01-15T01:42:20;5.50;98.80
45283;DHT22;31023;44.994;1.796;2024-01-15T01:44:46;5.50;98.70
45283;DHT22;31023;44.994;1.796;2024-01-15T01:47:13;5.50;99.00
45283;DHT22;31023;44.994;1.796;2024-01-15T01:49:40;5.70;98.70
45283;DHT22;31023;44.994;1.796;2024-01-15T01:52:06;5.70;98.40
45283;DHT22;31023;44.994;1.796;2024-01-15T01:54:35;5.80;98.40
45283;DHT22;31023;44.994;1.796;2024-01-15T01:57:02;5.80;98.30
45283;DHT22;31023;44.994;1.796;2024-01-15T01:59:28;5.80;98.30
45283;DHT22;31023;44.994;1.796;2024-01-15T02:01:55;5.80;98.20
45283;DHT22;31023;44.994;1.796;2024-01-15T02:04:25;5.70;98.20
45283;DHT22;31023;44.994;1.796;2024-01-15T02:06:51;5.70;98.20
45283;DHT22;31023;44.994;1.796;2024-01-15T02:09:20;5.90;98.10
45283;DHT22;31023;44.994;1.796;2024-01-15T02:11:48;5.90;97.90
45283;DHT22;31023;44.994;1.796;2024-01-15T02:14:14;5.80;97.90
45283;DHT22;31023;44.994;1.796;2024-01-15T02:16:40;5.70;98.20
45283;DHT22;31023;44.994;1.796;2024-01-15T02:19:06;5.70;98.30
45283;DHT22;31023;44.994;1.796;2024-01-15T02:21:32;5.60;98.30
45283;DHT22;31023;44.994;1.796;2024-01-15T02:23:58;5.50;98.80
45283;DHT22;31023;44.994;1.796;2024-01-15T02:26:23;5.50;99.40
45283;DHT22;31023;44.994;1.796;2024-01-15T02:28:51;5.40;99.60
45283;DHT22;31023;44.994;1.796;2024-01-15T02:31:17;5.40;99.90
45283;DHT22;31023;44.994;1.796;2024-01-15T02:33:43;5.40;99.80
45283;DHT22;31023;44.994;1.796;2024-01-15T02:36:10;5.50;99.80
45283;DHT22;31023;44.994;1.796;2024-01-15T02:38:35;5.50;99.60
45283;DHT22;31023;44.994;1.796;2024-01-15T02:41:01;5.50;99.50
45283;DHT22;31023;44.994;1.796;2024-01-15T02:43:27;5.60;99.60
45283;DHT22;31023;44.994;1.796;2024-01-15T02:45:52;5.60;99.30
45283;DHT22;31023;44.994;1.796;2024-01-15T02:48:18;5.50;99.20
45283;DHT22;31023;44.994;1.796;2024-01-15T02:50:44;5.50;99.60
45283;DHT22;31023;44.994;1.796;2024-01-15T02:53:09;5.30;99.70
45283;DHT22;31023;44.994;1.796;2024-01-15T02:55:35;5.20;99.90
45283;DHT22;31023;44.994;1.796;2024-01-15T02:58:00;5.10;99.90
45283;DHT22;31023;44.994;1.796;2024-01-15T03:00:26;5.10;99.90
45283;DHT22;31023;44.994;1.796;2024-01-15T03:02:52;5.00;99.90
45283;DHT22;31023;44.994;1.796;2024-01-15T03:05:18;5.00;99.90
45283;DHT22;31023;44.994;1.796;2024-01-15T03:07:43;5.00;99.90
45283;DHT22;31023;44.994;1.796;2024-01-15T03:10:09;4.90;99.90
45283;DHT22;31023;44.994;1.796;2024-01-15T03:12:35;4.90;99.90
45283;DHT22;31023;44.994;1.796;2024-01-15T03:15:01;4.80;99.90
45283;DHT22;31023;44.994;1.796;2024-01-15T03:17:26;4.70;99.90
45283;DHT22;31023;44.994;1.796;2024-01-15T03:19:52;4.70;99.90
45283;DHT22;31023;44.994;1.796;2024-01-15T03:22:18;4.60;99.90
45283;DHT22;31023;44.994;1.796;2024-01-15T03:24:44;4.70;99.90
45283;DHT22;31023;44.994;1.796;2024-01-15T03:27:09;4.70;99.90
45283;DHT22;31023;44.994;1.796;2024-01-15T03:29:35;4.60;99.90
45283;DHT22;31023;44.994;1.796;2024-01-15T03:32:01;4.60;99.90
45283;DHT22;31023;44.994;1.796;2024-01-15T03:34:26;4.70;99.90
45283;DHT22;31023;44.994;1.796;2024-01-15T03:36:52;4.70;99.90
45283;DHT22;31023;44.994;1.796;2024-01-15T03:39:18;4.90;99.90
45283;DHT22;31023;44.994;1.796;2024-01-15T03:41:43;5.00;99.90
45283;DHT22;31023;44.994;1.796;2024-01-15T03:44:09;5.20;99.90
45283;DHT22;31023;44.994;1.796;2024-01-15T03:46:35;5.30;99.90
45283;DHT22;31023;44.994;1.796;2024-01-15T03:49:02;5.30;99.90
45283;DHT22;31023;44.994;1.796;2024-01-15T03:51:27;5.30;99.90
45283;DHT22;31023;44.994;1.796;2024-01-15T03:53:53;5.20;99.90
45283;DHT22;31023;44.994;1.796;2024-01-15T03:56:19;5.30;99.90
45283;DHT22;31023;44.994;1.796;2024-01-15T03:58:44;5.30;99.90
45283;DHT22;31023;44.994;1.796;2024-01-15T04:01:10;5.30;99.90
45283;DHT22;31023;44.994;1.796;2024-01-15T04:03:36;5.40;99.90
45283;DHT22;31023;44.994;1.796;2024-01-15T04:06:03;5.40;99.90
45283;DHT22;31023;44.994;1.796;2024-01-15T04:08:28;5.30;99.90
45283;DHT22;31023;44.994;1.796;2024-01-15T04:10:54;5.30;99.90
45283;DHT22;31023;44.994;1.796;2024-01-15T04:13:20;5.30;99.90
45283;DHT22;31023;44.994;1.796;2024-01-15T04:15:46;5.40;99.90
45283;DHT22;31023;44.994;1.796;2024-01-15T04:18:12;5.30;99.90
45283;DHT22;31023;44.994;1.796;2024-01-15T04:20:37;5.30;99.90
45283;DHT22;31023;44.994;1.796;2024-01-15T04:23:04;5.40;99.90
45283;DHT22;31023;44.994;1.796;2024-01-15T04:25:30;5.30;99.90
45283;DHT22;31023;44.994;1.796;2024-01-15T04:27:56;5.40;99.90
45283;DHT22;31023;44.994;1.796;2024-01-15T04:30:21;5.30;99.90
45283;DHT22;31023;44.994;1.796;2024-01-15T04:32:47;5.40;99.90
45283;DHT22;31023;44.994;1.796;2024-01-15T04:35:13;5.40;99.90
45283;DHT22;31023;44.994;1.796;2024-01-15T04:37:39;5.40;99.90
45283;DHT22;31023;44.994;1.796;2024-01-15T04:40:06;5.30;99.90
45283;DHT22;31023;44.994;1.796;2024-01-15T04:42:31;5.40;99.90
45283;DHT22;31023;44.994;1.796;2024-01-15T04:44:57;5.40;99.90
45283;DHT22;31023;44.994;1.796;2024-01-15T04:47:23;5.40;99.90
45283;DHT22;31023;44.994;1.796;2024-01-15T04:49:49;5.30;99.90
45283;DHT22;31023;44.994;1.796;2024-01-15T04:52:15;5.30;99.90
45283;DHT22;31023;44.994;1.796;2024-01-15T04:54:40;5.40;99.90
45283;DHT22;31023;44.994;1.796;2024-01-15T04:57:06;5.40;99.90
45283;DHT22;31023;44.994;1.796;2024-01-15T04:59:32;5.40;99.90
45283;DHT22;31023;44.994;1.796;2024-01-15T05:01:57;5.20;99.90
45283;DHT22;31023;44.994;1.796;2024-01-15T05:04:23;5.30;99.90
45283;DHT22;31023;44.994;1.796;2024-01-15T05:06:50;5.30;99.90
45283;DHT22;31023;44.994;1.796;2024-01-15T05:09:16;5.20;99.90
45283;DHT22;31023;44.994;1.796;2024-01-15T05:11:43;5.10;99.90
45283;DHT22;31023;44.994;1.796;2024-01-15T05:14:09;4.90;99.90
45283;DHT22;31023;44.994;1.796;2024-01-15T05:16:35;4.80;99.90
45283;DHT22;31023;44.994;1.796;2024-01-15T05:19:00;4.90;99.90
45283;DHT22;31023;44.994;1.796;2024-01-15T05:21:26;4.80;99.90
45283;DHT22;31023;44.994;1.796;2024-01-15T05:23:52;4.80;99.90
45283;DHT22;31023;44.994;1.796;2024-01-15T05:26:17;4.80;99.90
45283;DHT22;31023;44.994;1.796;2024-01-15T05:28:43;4.60;99.90
45283;DHT22;31023;44.994;1.796;2024-01-15T05:31:09;4.50;99.90
45283;DHT22;31023;44.994;1.796;2024-01-15T05:33:36;4.50;99.90
45283;DHT22;31023;44.994;1.796;2024-01-15T05:36:01;4.60;99.90
45283;DHT22;31023;44.994;1.796;2024-01-15T05:38:27;4.80;99.90
45283;DHT22;31023;44.994;1.796;2024-01-15T05:40:53;4.90;99.90
45283;DHT22;31023;44.994;1.796;2024-01-15T05:43:19;5.00;99.90
45283;DHT22;31023;44.994;1.796;2024-01-15T05:45:45;5.20;99.90
45283;DHT22;31023;44.994;1.796;2024-01-15T05:48:11;5.30;99.90
45283;DHT22;31023;44.994;1.796;2024-01-15T05:50:37;5.10;99.90
45283;DHT22;31023;44.994;1.796;2024-01-15T05:53:03;5.10;99.90
45283;DHT22;31023;44.994;1.796;2024-01-15T05:55:29;5.20;99.90
45283;DHT22;31023;44.994;1.796;2024-01-15T05:57:54;5.10;99.90
45283;DHT22;31023;44.994;1.796;2024-01-15T06:00:20;5.20;99.90
45283;DHT22;31023;44.994;1.796;2024-01-15T06:02:46;5.30;99.90
45283;DHT22;31023;44.994;1.796;2024-01-15T06:05:11;5.30;99.90
45283;DHT22;31023;44.994;1.796;2024-01-15T06:07:37;5.40;99.90
45283;DHT22;31023;44.994;1.796;2024-01-15T06:10:04;5.40;99.90
45283;DHT22;31023;44.994;1.796;2024-01-15T06:12:32;5.40;99.90
45283;DHT22;31023;44.994;1.796;2024-01-15T06:14:59;5.40;99.90
45283;DHT22;31023;44.994;1.796;2024-01-15T06:17:24;5.40;99.90
45283;DHT22;31023;44.994;1.796;2024-01-15T06:19:50;5.50;99.90
45283;DHT22;31023;44.994;1.796;2024-01-15T06:22:16;5.40;99.90
45283;DHT22;31023;44.994;1.796;2024-01-15T06:24:41;5.40;99.90
45283;DHT22;31023;44.994;1.796;2024-01-15T06:27:08;5.50;99.90
45283;DHT22;31023;44.994;1.796;2024-01-15T06:29:33;5.40;99.90
45283;DHT22;31023;44.994;1.796;2024-01-15T06:32:02;5.60;99.90
45283;DHT22;31023;44.994;1.796;2024-01-15T06:34:28;5.60;99.90
45283;DHT22;31023;44.994;1.796;2024-01-15T06:36:54;5.70;99.90
45283;DHT22;31023;44.994;1.796;2024-01-15T06:39:20;5.80;99.90
45283;DHT22;31023;44.994;1.796;2024-01-15T06:41:45;5.80;99.90
45283;DHT22;31023;44.994;1.796;2024-01-15T06:44:11;5.80;99.70
45283;DHT22;31023;44.994;1.796;2024-01-15T06:46:41;5.80;99.50
45283;DHT22;31023;44.994;1.796;2024-01-15T06:49:07;5.70;99.90
45283;DHT22;31023;44.994;1.796;2024-01-15T06:51:32;5.50;99.90
45283;DHT22;31023;44.994;1.796;2024-01-15T06:53:58;5.50;99.90
45283;DHT22;31023;44.994;1.796;2024-01-15T06:56:24;5.50;99.90
45283;DHT22;31023;44.994;1.796;2024-01-15T06:58:49;5.50;99.90
45283;DHT22;31023;44.994;1.796;2024-01-15T07:01:15;5.60;99.90
45283;DHT22;31023;44.994;1.796;2024-01-15T07:03:41;5.50;99.90
45283;DHT22;31023;44.994;1.796;2024-01-15T07:06:06;5.50;99.90
45283;DHT22;31023;44.994;1.796;2024-01-15T07:08:32;5.50;99.90
45283;DHT22;31023;44.994;1.796;2024-01-15T07:10:57;5.60;99.90
45283;DHT22;31023;44.994;1.796;2024-01-15T07:13:23;5.60;99.90
45283;DHT22;31023;44.994;1.796;2024-01-15T07:15:49;5.70;99.90
45283;DHT22;31023;44.994;1.796;2024-01-15T07:18:14;5.60;99.90
45283;DHT22;31023;44.994;1.796;2024-01-15T07:20:40;5.60;99.90
45283;DHT22;31023;44.994;1.796;2024-01-15T07:23:06;5.70;99.90
45283;DHT22;31023;44.994;1.796;2024-01-15T07:25:32;5.70;99.90
45283;DHT22;31023;44.994;1.796;2024-01-15T07:27:58;5.70;99.90
45283;DHT22;31023;44.994;1.796;2024-01-15T07:30:23;5.80;99.90
45283;DHT22;31023;44.994;1.796;2024-01-15T07:32:49;5.80;99.90
45283;DHT22;31023;44.994;1.796;2024-01-15T07:35:15;5.70;99.90
45283;DHT22;31023;44.994;1.796;2024-01-15T07:37:41;5.80;99.90
45283;DHT22;31023;44.994;1.796;2024-01-15T07:40:07;5.90;99.90
45283;DHT22;31023;44.994;1.796;2024-01-15T07:42:37;5.70;99.90
45283;DHT22;31023;44.994;1.796;2024-01-15T07:45:04;5.70;99.90
45283;DHT22;31023;44.994;1.796;2024-01-15T07:47:30;5.70;99.90
45283;DHT22;31023;44.994;1.796;2024-01-15T07:49:55;5.80;99.90
45283;DHT22;31023;44.994;1.796;2024-01-15T07:52:21;5.90;99.90
45283;DHT22;31023;44.994;1.796;2024-01-15T07:54:47;5.90;99.90
45283;DHT22;31023;44.994;1.796;2024-01-15T07:57:13;5.80;99.90
45283;DHT22;31023;44.994;1.796;2024-01-15T07:59:38;5.80;99.90
45283;DHT22;31023;44.994;1.796;2024-01-15T08:02:05;5.80;99.90
45283;DHT22;31023;44.994;1.796;2024-01-15T08:04:31;5.90;99.90
45283;DHT22;31023;44.994;1.796;2024-01-15T08:06:57;5.80;99.90
45283;DHT22;31023;44.994;1.796;2024-01-15T08:09:23;5.80;99.90
45283;DHT22;31023;44.994;1.796;2024-01-15T08:11:49;6.00;99.90
45283;DHT22;31023;44.994;1.796;2024-01-15T08:14:15;5.90;99.90
45283;DHT22;31023;44.994;1.796;2024-01-15T08:16:40;5.90;99.90
45283;DHT22;31023;44.994;1.796;2024-01-15T08:19:06;5.90;99.90
45283;DHT22;31023;44.994;1.796;2024-01-15T08:21:32;5.80;99.90
45283;DHT22;31023;44.994;1.796;2024-01-15T08:24:02;5.80;99.90
45283;DHT22;31023;44.994;1.796;2024-01-15T08:26:28;5.80;99.90
45283;DHT22;31023;44.994;1.796;2024-01-15T08:28:54;5.90;99.90
45283;DHT22;31023;44.994;1.796;2024-01-15T08:31:20;5.90;99.90
45283;DHT22;31023;44.994;1.796;2024-01-15T08:33:46;5.90;99.90
45283;DHT22;31023;44.994;1.796;2024-01-15T08:36:12;5.90;99.90
45283;DHT22;31023;44.994;1.796;2024-01-15T08:38:38;6.00;99.90
45283;DHT22;31023;44.994;1.796;2024-01-15T08:41:04;6.00;99.90
45283;DHT22;31023;44.994;1.796;2024-01-15T08:43:30;6.00;99.90
45283;DHT22;31023;44.994;1.796;2024-01-15T08:45:58;6.20;99.90
45283;DHT22;31023;44.994;1.796;2024-01-15T08:48:24;6.20;99.90
45283;DHT22;31023;44.994;1.796;2024-01-15T08:50:53;6.20;99.90
45283;DHT22;31023;44.994;1.796;2024-01-15T08:53:18;6.10;99.90
45283;DHT22;31023;44.994;1.796;2024-01-15T08:55:44;6.10;99.90
45283;DHT22;31023;44.994;1.796;2024-01-15T08:58:10;6.00;99.90
45283;DHT22;31023;44.994;1.796;2024-01-15T09:00:36;6.00;99.90
45283;DHT22;31023;44.994;1.796;2024-01-15T09:03:02;6.20;99.90
45283;DHT22;31023;44.994;1.796;2024-01-15T09:05:28;6.30;99.90
45283;DHT22;31023;44.994;1.796;2024-01-15T09:07:54;6.40;99.90
45283;DHT22;31023;44.994;1.796;2024-01-15T09:10:20;6.50;99.90
45283;DHT22;31023;44.994;1.796;2024-01-15T09:12:46;6.50;99.90
45283;DHT22;31023;44.994;1.796;2024-01-15T09:15:12;6.40;99.90
45283;DHT22;31023;44.994;1.796;2024-01-15T09:17:38;6.40;99.90
45283;DHT22;31023;44.994;1.796;2024-01-15T09:20:04;6.40;99.90
45283;DHT22;31023;44.994;1.796;2024-01-15T09:22:31;6.40;99.90
45283;DHT22;31023;44.994;1.796;2024-01-15T09:24:57;6.50;99.90
45283;DHT22;31023;44.994;1.796;2024-01-15T09:27:22;6.60;99.90
45283;DHT22;31023;44.994;1.796;2024-01-15T09:29:48;6.60;99.90
45283;DHT22;31023;44.994;1.796;2024-01-15T09:32:14;6.60;99.90
45283;DHT22;31023;44.994;1.796;2024-01-15T09:34:41;6.40;99.90
45283;DHT22;31023;44.994;1.796;2024-01-15T09:37:07;6.40;99.90
45283;DHT22;31023;44.994;1.796;2024-01-15T09:39:32;6.40;99.90
45283;DHT22;31023;44.994;1.796;2024-01-15T09:41:58;6.50;99.90
45283;DHT22;31023;44.994;1.796;2024-01-15T09:44:25;6.40;99.90
45283;DHT22;31023;44.994;1.796;2024-01-15T09:46:52;6.00;99.90
45283;DHT22;31023;44.994;1.796;2024-01-15T09:49:18;6.00;99.90
45283;DHT22;31023;44.994;1.796;2024-01-15T09:51:44;6.20;99.90
45283;DHT22;31023;44.994;1.796;2024-01-15T09:54:10;6.20;99.90
45283;DHT22;31023;44.994;1.796;2024-01-15T09:56:38;6.20;99.90
45283;DHT22;31023;44.994;1.796;2024-01-15T09:59:04;6.10;99.90
45283;DHT22;31023;44.994;1.796;2024-01-15T10:01:32;5.90;99.90
45283;DHT22;31023;44.994;1.796;2024-01-15T10:03:58;6.00;99.90
45283;DHT22;31023;44.994;1.796;2024-01-15T10:06:27;6.00;99.90
45283;DHT22;31023;44.994;1.796;2024-01-15T10:08:54;6.00;99.90
45283;DHT22;31023;44.994;1.796;2024-01-15T10:11:21;6.10;99.90
45283;DHT22;31023;44.994;1.796;2024-01-15T10:13:47;6.30;99.90
45283;DHT22;31023;44.994;1.796;2024-01-15T10:16:17;6.40;99.90
45283;DHT22;31023;44.994;1.796;2024-01-15T10:18:43;6.40;99.90
45283;DHT22;31023;44.994;1.796;2024-01-15T10:21:08;6.50;99.90
45283;DHT22;31023;44.994;1.796;2024-01-15T10:23:34;6.60;99.90
45283;DHT22;31023;44.994;1.796;2024-01-15T10:26:01;6.60;99.90
45283;DHT22;31023;44.994;1.796;2024-01-15T10:28:28;6.50;99.90
45283;DHT22;31023;44.994;1.796;2024-01-15T10:30:57;6.50;99.90
45283;DHT22;31023;44.994;1.796;2024-01-15T10:33:23;6.60;99.90
45283;DHT22;31023;44.994;1.796;2024-01-15T10:35:55;6.70;99.90
45283;DHT22;31023;44.994;1.796;2024-01-15T10:38:22;6.80;99.90
45283;DHT22;31023;44.994;1.796;2024-01-15T10:40:51;6.70;99.90
45283;DHT22;31023;44.994;1.796;2024-01-15T10:43:17;6.60;99.90
45283;DHT22;31023;44.994;1.796;2024-01-15T10:45:47;6.70;99.90
45283;DHT22;31023;44.994;1.796;2024-01-15T10:48:14;6.70;99.90
45283;DHT22;31023;44.994;1.796;2024-01-15T10:50:39;6.80;99.90
45283;DHT22;31023;44.994;1.796;2024-01-15T10:53:05;6.90;99.90
45283;DHT22;31023;44.994;1.796;2024-01-15T10:55:35;7.10;99.90
45283;DHT22;31023;44.994;1.796;2024-01-15T10:58:02;7.00;99.90
45283;DHT22;31023;44.994;1.796;2024-01-15T11:00:29;6.80;99.90
45283;DHT22;31023;44.994;1.796;2024-01-15T11:02:55;6.90;99.90
45283;DHT22;31023;44.994;1.796;2024-01-15T11:05:22;7.00;99.90
45283;DHT22;31023;44.994;1.796;2024-01-15T11:07:48;7.00;99.90
45283;DHT22;31023;44.994;1.796;2024-01-15T11:13:20;7.00;99.90
45283;DHT22;31023;44.994;1.796;2024-01-15T11:15:57;6.90;99.90
45283;DHT22;31023;44.994;1.796;2024-01-15T11:18:23;6.90;99.90
45283;DHT22;31023;44.994;1.796;2024-01-15T11:23:45;6.80;99.90
45283;DHT22;31023;44.994;1.796;2024-01-15T11:26:27;6.70;99.90
45283;DHT22;31023;44.994;1.796;2024-01-15T11:28:54;6.80;99.90
45283;DHT22;31023;44.994;1.796;2024-01-15T11:31:20;6.90;99.90
45283;DHT22;31023;44.994;1.796;2024-01-15T11:33:49;6.90;99.90
45283;DHT22;31023;44.994;1.796;2024-01-15T11:36:15;7.30;99.90
45283;DHT22;31023;44.994;1.796;2024-01-15T11:38:41;7.80;99.90
45283;DHT22;31023;44.994;1.796;2024-01-15T11:41:16;8.10;99.90
45283;DHT22;31023;44.994;1.796;2024-01-15T11:43:42;8.00;99.90
45283;DHT22;31023;44.994;1.796;2024-01-15T11:46:12;7.80;99.90
45283;DHT22;31023;44.994;1.796;2024-01-15T11:48:43;7.60;99.90
45283;DHT22;31023;44.994;1.796;2024-01-15T11:51:12;7.50;99.90
45283;DHT22;31023;44.994;1.796;2024-01-15T11:53:43;7.30;99.90
45283;DHT22;31023;44.994;1.796;2024-01-15T11:56:17;7.30;99.90
45283;DHT22;31023;44.994;1.796;2024-01-15T11:58:43;7.30;99.90
45283;DHT22;31023;44.994;1.796;2024-01-15T12:01:10;7.30;99.90
45283;DHT22;31023;44.994;1.796;2024-01-15T12:03:36;7.20;99.90
45283;DHT22;31023;44.994;1.796;2024-01-15T12:06:04;7.00;99.90
45283;DHT22;31023;44.994;1.796;2024-01-15T12:08:30;7.00;99.90
45283;DHT22;31023;44.994;1.796;2024-01-15T12:10:56;7.10;99.90
45283;DHT22;31023;44.994;1.796;2024-01-15T12:13:22;7.00;99.90
45283;DHT22;31023;44.994;1.796;2024-01-15T12:15:48;7.10;99.90
45283;DHT22;31023;44.994;1.796;2024-01-15T12:18:16;6.90;99.90
45283;DHT22;31023;44.994;1.796;2024-01-15T12:20:42;6.90;99.90
45283;DHT22;31023;44.994;1.796;2024-01-15T12:23:09;7.10;99.90
45283;DHT22;31023;44.994;1.796;2024-01-15T12:25:36;7.00;99.90
45283;DHT22;31023;44.994;1.796;2024-01-15T12:28:02;7.10;99.90
45283;DHT22;31023;44.994;1.796;2024-01-15T12:30:29;7.10;99.90
45283;DHT22;31023;44.994;1.796;2024-01-15T12:32:57;7.20;99.90
45283;DHT22;31023;44.994;1.796;2024-01-15T12:35:24;7.20;99.90
45283;DHT22;31023;44.994;1.796;2024-01-15T12:37:51;7.30;99.90
45283;DHT22;31023;44.994;1.796;2024-01-15T12:40:20;7.10;99.90
45283;DHT22;31023;44.994;1.796;2024-01-15T12:42:46;7.20;99.90
45283;DHT22;31023;44.994;1.796;2024-01-15T12:45:12;7.10;99.90
45283;DHT22;31023;44.994;1.796;2024-01-15T12:47:39;7.20;99.90
45283;DHT22;31023;44.994;1.796;2024-01-15T12:50:09;7.30;99.90
45283;DHT22;31023;44.994;1.796;2024-01-15T12:52:35;7.40;99.90
45283;DHT22;31023;44.994;1.796;2024-01-15T12:55:07;7.40;99.90
45283;DHT22;31023;44.994;1.796;2024-01-15T12:57:34;7.40;99.90
45283;DHT22;31023;44.994;1.796;2024-01-15T12:59:59;7.40;99.90
45283;DHT22;31023;44.994;1.796;2024-01-15T13:02:25;7.40;99.90
45283;DHT22;31023;44.994;1.796;2024-01-15T13:04:51;7.30;99.90
45283;DHT22;31023;44.994;1.796;2024-01-15T13:07:17;7.30;99.90
45283;DHT22;31023;44.994;1.796;2024-01-15T13:09:42;7.30;99.90
45283;DHT22;31023;44.994;1.796;2024-01-15T13:12:08;7.40;99.90
45283;DHT22;31023;44.994;1.796;2024-01-15T13:14:34;7.20;99.90
45283;DHT22;31023;44.994;1.796;2024-01-15T13:17:00;7.00;99.90
45283;DHT22;31023;44.994;1.796;2024-01-15T13:19:26;7.00;99.90
45283;DHT22;31023;44.994;1.796;2024-01-15T13:21:53;7.00;99.90
45283;DHT22;31023;44.994;1.796;2024-01-15T13:24:19;6.90;99.90
45283;DHT22;31023;44.994;1.796;2024-01-15T13:26:45;6.80;99.90
45283;DHT22;31023;44.994;1.796;2024-01-15T13:29:11;6.80;99.90
45283;DHT22;31023;44.994;1.796;2024-01-15T13:31:36;6.80;99.90
45283;DHT22;31023;44.994;1.796;2024-01-15T13:34:03;6.80;99.90
45283;DHT22;31023;44.994;1.796;2024-01-15T13:36:29;6.70;99.90
45283;DHT22;31023;44.994;1.796;2024-01-15T13:38:55;6.50;99.90
45283;DHT22;31023;44.994;1.796;2024-01-15T13:41:21;6.50;99.90
45283;DHT22;31023;44.994;1.796;2024-01-15T13:43:51;6.60;99.90
45283;DHT22;31023;44.994;1.796;2024-01-15T13:46:18;6.70;99.90
45283;DHT22;31023;44.994;1.796;2024-01-15T13:48:45;6.60;99.90
45283;DHT22;31023;44.994;1.796;2024-01-15T13:51:11;6.60;99.90
45283;DHT22;31023;44.994;1.796;2024-01-15T13:53:38;6.60;99.90
45283;DHT22;31023;44.994;1.796;2024-01-15T13:56:04;6.50;99.90
45283;DHT22;31023;44.994;1.796;2024-01-15T13:58:30;6.50;99.90
45283;DHT22;31023;44.994;1.796;2024-01-15T14:00:56;6.50;99.90
45283;DHT22;31023;44.994;1.796;2024-01-15T14:03:22;6.50;99.90
45283;DHT22;31023;44.994;1.796;2024-01-15T14:05:47;6.50;99.90
45283;DHT22;31023;44.994;1.796;2024-01-15T14:08:13;6.60;99.90
45283;DHT22;31023;44.994;1.796;2024-01-15T14:10:39;6.70;99.90
45283;DHT22;31023;44.994;1.796;2024-01-15T14:13:05;6.80;99.90
45283;DHT22;31023;44.994;1.796;2024-01-15T14:15:31;6.80;99.90
45283;DHT22;31023;44.994;1.796;2024-01-15T14:17:56;6.70;99.90
45283;DHT22;31023;44.994;1.796;2024-01-15T14:20:23;6.70;99.90
45283;DHT22;31023;44.994;1.796;2024-01-15T14:22:49;6.70;99.90
45283;DHT22;31023;44.994;1.796;2024-01-15T14:25:14;6.80;99.90
45283;DHT22;31023;44.994;1.796;2024-01-15T14:27:40;6.90;99.90
45283;DHT22;31023;44.994;1.796;2024-01-15T14:30:06;7.10;99.90
45283;DHT22;31023;44.994;1.796;2024-01-15T14:32:34;7.30;99.90
45283;DHT22;31023;44.994;1.796;2024-01-15T14:34:59;7.30;99.90
45283;DHT22;31023;44.994;1.796;2024-01-15T14:37:25;7.40;99.90
45283;DHT22;31023;44.994;1.796;2024-01-15T14:39:51;7.30;99.90
45283;DHT22;31023;44.994;1.796;2024-01-15T14:42:17;7.30;99.90
45283;DHT22;31023;44.994;1.796;2024-01-15T14:44:43;7.30;99.90
45283;DHT22;31023;44.994;1.796;2024-01-15T14:47:08;7.20;99.90
45283;DHT22;31023;44.994;1.796;2024-01-15T14:49:34;7.10;99.90
45283;DHT22;31023;44.994;1.796;2024-01-15T14:52:00;7.00;99.90
45283;DHT22;31023;44.994;1.796;2024-01-15T14:54:25;7.00;99.90
45283;DHT22;31023;44.994;1.796;2024-01-15T14:56:51;7.00;99.90
45283;DHT22;31023;44.994;1.796;2024-01-15T14:59:17;6.90;99.90
45283;DHT22;31023;44.994;1.796;2024-01-15T15:01:43;6.90;99.90
45283;DHT22;31023;44.994;1.796;2024-01-15T15:04:09;6.90;99.90
45283;DHT22;31023;44.994;1.796;2024-01-15T15:06:36;6.80;99.90
45283;DHT22;31023;44.994;1.796;2024-01-15T15:09:02;6.90;99.90
45283;DHT22;31023;44.994;1.796;2024-01-15T15:11:34;7.00;99.90
45283;DHT22;31023;44.994;1.796;2024-01-15T15:14:00;7.10;99.90
45283;DHT22;31023;44.994;1.796;2024-01-15T15:16:26;7.00;99.90
45283;DHT22;31023;44.994;1.796;2024-01-15T15:18:53;7.10;99.90
45283;DHT22;31023;44.994;1.796;2024-01-15T15:21:20;7.10;99.90
45283;DHT22;31023;44.994;1.796;2024-01-15T15:23:45;7.00;99.90
45283;DHT22;31023;44.994;1.796;2024-01-15T15:26:12;7.00;99.90
45283;DHT22;31023;44.994;1.796;2024-01-15T15:28:38;7.10;99.90
45283;DHT22;31023;44.994;1.796;2024-01-15T15:31:07;7.10;99.90
45283;DHT22;31023;44.994;1.796;2024-01-15T15:33:34;7.10;99.90
45283;DHT22;31023;44.994;1.796;2024-01-15T15:36:00;7.00;99.90
45283;DHT22;31023;44.994;1.796;2024-01-15T15:38:30;7.00;99.90
45283;DHT22;31023;44.994;1.796;2024-01-15T15:40:56;7.00;99.90
45283;DHT22;31023;44.994;1.796;2024-01-15T15:43:22;7.00;99.90